createdAt,value
2023-03-19T00:00:49.777Z,11.77
2023-03-19T00:01:51.435Z,11.87
2023-03-19T00:02:53.277Z,11.94
2023-03-19T00:03:54.864Z,11.96
2023-03-19T00:04:56.510Z,12.13
2023-03-19T00:05:58.036Z,12.21
2023-03-19T00:06:59.576Z,12.09
2023-03-19T00:08:01.176Z,11.78
2023-03-19T00:09:02.705Z,11.97
2023-03-19T00:10:04.371Z,11.95
2023-03-19T00:11:07.985Z,11.92
2023-03-19T00:12:09.800Z,11.89
2023-03-19T00:13:11.562Z,11.83
2023-03-19T00:14:13.098Z,11.79
2023-03-19T00:15:15.446Z,11.89
2023-03-19T00:16:17.374Z,11.87
2023-03-19T00:17:18.886Z,11.86
2023-03-19T00:18:20.403Z,11.85
2023-03-19T00:19:22.151Z,11.78
2023-03-19T00:20:23.637Z,11.67
2023-03-19T00:21:26.059Z,11.65
2023-03-19T00:22:27.636Z,11.62
2023-03-19T00:23:29.199Z,11.59
2023-03-19T00:24:30.865Z,11.53
2023-03-19T00:25:32.704Z,11.53
2023-03-19T00:26:34.647Z,11.47
2023-03-19T00:27:37.428Z,11.42
2023-03-19T00:28:39.090Z,11.44
2023-03-19T00:29:41.313Z,11.41
2023-03-19T00:30:45.318Z,11.55
2023-03-19T00:31:47.668Z,11.59
2023-03-19T00:32:49.240Z,11.61
2023-03-19T00:33:51.055Z,11.52
2023-03-19T00:34:52.879Z,11.47
2023-03-19T00:35:54.761Z,11.46
2023-03-19T00:36:56.568Z,11.34
2023-03-19T00:37:58.338Z,11.38
2023-03-19T00:39:00.121Z,11.36
2023-03-19T00:40:04.838Z,11.36
2023-03-19T00:41:07.651Z,11.26
2023-03-19T00:42:11.243Z,11.25
2023-03-19T00:43:13.225Z,11.17
2023-03-19T00:44:14.989Z,11.16
2023-03-19T00:45:17.408Z,11.13
2023-03-19T00:46:18.990Z,11.18
2023-03-19T00:47:21.348Z,11.14
2023-03-19T00:48:23.190Z,11.13
2023-03-19T00:49:24.731Z,11.02
2023-03-19T00:50:26.805Z,10.97
2023-03-19T00:51:28.347Z,11.05
2023-03-19T00:52:29.906Z,11.10
2023-03-19T00:53:31.418Z,11.14
2023-03-19T00:54:33.461Z,11.11
2023-03-19T00:55:35.330Z,11.04
2023-03-19T00:56:37.120Z,11.07
2023-03-19T00:57:38.670Z,10.80
2023-03-19T00:58:41.091Z,10.77
2023-03-19T00:59:42.636Z,10.87
2023-03-19T01:00:44.175Z,10.93
2023-03-19T01:01:45.855Z,10.91
2023-03-19T01:02:47.395Z,10.85
2023-03-19T01:03:49.083Z,10.81
2023-03-19T01:04:50.727Z,10.70
2023-03-19T01:05:52.220Z,10.70
2023-03-19T01:06:55.489Z,10.66
2023-03-19T01:07:57.099Z,10.65
2023-03-19T01:08:58.650Z,10.64
2023-03-19T01:10:00.175Z,10.58
2023-03-19T01:11:09.336Z,10.59
2023-03-19T01:12:10.839Z,10.99
2023-03-19T01:13:12.619Z,10.84
2023-03-19T01:14:16.212Z,10.88
2023-03-19T01:15:18.173Z,10.75
2023-03-19T01:16:19.749Z,10.82
2023-03-19T01:17:21.321Z,10.77
2023-03-19T01:18:22.824Z,10.81
2023-03-19T01:19:24.331Z,10.85
2023-03-19T01:20:25.847Z,10.92
2023-03-19T01:21:30.858Z,10.95
2023-03-19T01:22:34.008Z,10.98
2023-03-19T01:23:37.084Z,11.03
2023-03-19T01:24:38.652Z,11.08
2023-03-19T01:25:40.383Z,11.10
2023-03-19T01:26:42.311Z,11.01
2023-03-19T01:27:43.810Z,11.14
2023-03-19T01:28:45.565Z,11.11
2023-03-19T01:29:47.410Z,11.07
2023-03-19T01:30:48.948Z,11.01
2023-03-19T01:31:51.341Z,11.03
2023-03-19T01:32:53.307Z,10.92
2023-03-19T01:33:54.851Z,10.91
2023-03-19T01:34:56.644Z,10.84
2023-03-19T01:35:59.702Z,10.80
2023-03-19T01:37:01.409Z,10.88
2023-03-19T01:38:03.292Z,10.93
2023-03-19T01:39:04.941Z,11.03
2023-03-19T01:40:07.286Z,10.96
2023-03-19T01:41:09.548Z,11.00
2023-03-19T01:42:11.743Z,10.99
2023-03-19T01:43:20.708Z,10.99
2023-03-19T01:44:35.812Z,11.05
2023-03-19T01:45:38.177Z,11.11
2023-03-19T01:46:39.825Z,11.02
2023-03-19T01:47:41.949Z,10.99
2023-03-19T01:48:46.430Z,10.94
2023-03-19T01:49:52.352Z,10.95
2023-03-19T01:50:55.635Z,10.98
2023-03-19T01:51:57.945Z,10.90
2023-03-19T01:52:59.428Z,11.00
2023-03-19T01:54:02.847Z,10.91
2023-03-19T01:55:05.310Z,10.93
2023-03-19T01:56:21.829Z,10.89
2023-03-19T01:57:23.598Z,11.04
2023-03-19T01:58:26.043Z,10.87
2023-03-19T01:59:32.187Z,10.34
2023-03-19T02:00:35.412Z,10.48
2023-03-19T02:01:39.998Z,10.67
2023-03-19T02:02:41.836Z,10.68
2023-03-19T02:03:43.545Z,10.84
2023-03-19T02:04:45.725Z,10.94
2023-03-19T02:05:47.392Z,11.01
2023-03-19T02:06:48.885Z,11.17
2023-03-19T02:07:50.587Z,11.23
2023-03-19T02:08:52.155Z,11.28
2023-03-19T02:09:53.707Z,11.33
2023-03-19T02:10:56.012Z,11.31
2023-03-19T02:11:57.691Z,11.36
2023-03-19T02:12:59.238Z,11.28
2023-03-19T02:14:00.803Z,11.31
2023-03-19T02:15:02.354Z,11.32
2023-03-19T02:16:04.452Z,11.31
2023-03-19T02:17:06.823Z,11.45
2023-03-19T02:18:08.958Z,11.45
2023-03-19T02:19:13.496Z,11.41
2023-03-19T02:20:35.227Z,11.51
2023-03-19T02:21:36.836Z,11.62
2023-03-19T02:22:41.263Z,11.53
2023-03-19T02:24:01.390Z,11.57
2023-03-19T02:25:07.165Z,11.66
2023-03-19T02:26:10.100Z,11.52
2023-03-19T02:27:11.589Z,11.95
2023-03-19T02:28:14.698Z,11.73
2023-03-19T02:29:16.632Z,11.73
2023-03-19T02:30:29.482Z,11.70
2023-03-19T02:31:31.696Z,11.58
2023-03-19T02:32:33.314Z,11.38
2023-03-19T02:33:34.884Z,11.25
2023-03-19T02:34:38.297Z,11.13
2023-03-19T02:35:39.845Z,10.87
2023-03-19T02:36:43.124Z,10.95
2023-03-19T02:37:44.850Z,10.93
2023-03-19T02:38:46.339Z,10.97
2023-03-19T02:39:56.979Z,11.00
2023-03-19T02:41:01.149Z,11.13
2023-03-19T02:42:03.045Z,11.10
2023-03-19T02:43:04.587Z,11.10
2023-03-19T02:44:06.560Z,11.06
2023-03-19T02:45:08.845Z,10.90
2023-03-19T02:46:12.004Z,10.83
2023-03-19T02:47:13.883Z,10.88
2023-03-19T02:48:15.428Z,10.88
2023-03-19T02:49:16.949Z,10.98
2023-03-19T02:50:18.496Z,11.08
2023-03-19T02:51:20.402Z,11.18
2023-03-19T02:52:22.217Z,11.21
2023-03-19T02:53:23.821Z,11.18
2023-03-19T02:54:25.367Z,11.11
2023-03-19T02:55:27.319Z,11.02
2023-03-19T02:56:29.143Z,10.95
2023-03-19T02:57:30.741Z,10.94
2023-03-19T02:58:32.334Z,10.90
2023-03-19T02:59:33.988Z,10.86
2023-03-19T03:00:35.876Z,10.82
2023-03-19T03:01:38.212Z,10.80
2023-03-19T03:02:39.871Z,10.77
2023-03-19T03:03:41.830Z,10.87
2023-03-19T03:04:43.362Z,10.94
2023-03-19T03:05:44.881Z,11.06
2023-03-19T03:06:46.418Z,11.07
2023-03-19T03:07:48.013Z,11.16
2023-03-19T03:08:49.803Z,11.16
2023-03-19T03:09:51.468Z,11.08
2023-03-19T03:10:53.010Z,10.99
2023-03-19T03:11:54.534Z,10.95
2023-03-19T03:12:56.075Z,10.86
2023-03-19T03:13:57.739Z,10.78
2023-03-19T03:14:59.506Z,10.75
2023-03-19T03:16:01.017Z,10.66
2023-03-19T03:17:02.579Z,10.71
2023-03-19T03:18:04.102Z,10.66
2023-03-19T03:19:05.965Z,10.65
2023-03-19T03:20:08.062Z,10.60
2023-03-19T03:21:10.511Z,10.67
2023-03-19T03:22:12.027Z,10.70
2023-03-19T03:23:13.521Z,10.65
2023-03-19T03:24:15.327Z,10.67
2023-03-19T03:25:16.983Z,10.68
2023-03-19T03:26:18.819Z,10.68
2023-03-19T03:27:20.328Z,10.68
2023-03-19T03:28:21.831Z,10.55
2023-03-19T03:29:23.328Z,10.52
2023-03-19T03:30:25.092Z,10.54
2023-03-19T03:31:27.237Z,10.60
2023-03-19T03:32:28.794Z,10.74
2023-03-19T03:33:30.285Z,10.86
2023-03-19T03:34:31.954Z,10.97
2023-03-19T03:35:33.515Z,11.06
2023-03-19T03:36:35.084Z,11.04
2023-03-19T03:37:37.209Z,10.88
2023-03-19T03:38:38.807Z,10.83
2023-03-19T03:39:40.730Z,10.74
2023-03-19T03:40:42.658Z,10.60
2023-03-19T03:41:44.270Z,10.67
2023-03-19T03:42:45.824Z,10.74
2023-03-19T03:43:47.824Z,10.66
2023-03-19T03:44:49.321Z,10.74
2023-03-19T03:45:50.832Z,10.75
2023-03-19T03:46:52.461Z,10.76
2023-03-19T03:47:53.963Z,10.73
2023-03-19T03:48:55.647Z,10.74
2023-03-19T03:49:57.159Z,10.76
2023-03-19T03:50:58.653Z,10.75
2023-03-19T03:52:00.466Z,10.78
2023-03-19T03:53:02.029Z,10.82
2023-03-19T03:54:03.909Z,10.90
2023-03-19T03:55:06.000Z,10.71
2023-03-19T03:56:08.348Z,10.94
2023-03-19T03:57:09.859Z,10.87
2023-03-19T03:58:13.016Z,10.95
2023-03-19T03:59:14.563Z,10.93
2023-03-19T04:00:16.100Z,10.94
2023-03-19T04:01:18.493Z,10.76
2023-03-19T04:02:20.351Z,10.79
2023-03-19T04:03:22.498Z,10.75
2023-03-19T04:04:24.078Z,10.64
2023-03-19T04:05:26.108Z,10.70
2023-03-19T04:06:27.721Z,10.67
2023-03-19T04:07:29.259Z,10.62
2023-03-19T04:08:30.776Z,10.56
2023-03-19T04:09:33.037Z,10.54
2023-03-19T04:10:36.005Z,10.43
2023-03-19T04:11:38.448Z,10.76
2023-03-19T04:12:40.088Z,10.68
2023-03-19T04:13:42.313Z,10.58
2023-03-19T04:14:44.557Z,10.63
2023-03-19T04:15:46.623Z,10.64
2023-03-19T04:16:48.364Z,10.58
2023-03-19T04:17:50.388Z,10.47
2023-03-19T04:18:51.926Z,10.47
2023-03-19T04:19:53.761Z,10.51
2023-03-19T04:20:55.307Z,10.50
2023-03-19T04:21:56.819Z,10.51
2023-03-19T04:22:58.378Z,10.52
2023-03-19T04:23:59.906Z,10.50
2023-03-19T04:25:01.857Z,10.55
2023-03-19T04:26:04.492Z,10.68
2023-03-19T04:27:07.293Z,10.79
2023-03-19T04:28:09.198Z,10.95
2023-03-19T04:29:10.745Z,11.03
2023-03-19T04:30:13.361Z,11.03
2023-03-19T04:31:15.506Z,11.17
2023-03-19T04:32:17.041Z,11.20
2023-03-19T04:33:19.216Z,11.28
2023-03-19T04:34:23.311Z,11.29
2023-03-19T04:35:25.215Z,11.26
2023-03-19T04:36:26.797Z,11.26
2023-03-19T04:37:28.452Z,11.35
2023-03-19T04:38:30.048Z,11.29
2023-03-19T04:39:31.904Z,11.15
2023-03-19T04:40:33.800Z,11.07
2023-03-19T04:41:35.493Z,11.05
2023-03-19T04:42:37.003Z,10.97
2023-03-19T04:43:38.508Z,10.87
2023-03-19T04:44:40.027Z,10.89
2023-03-19T04:45:41.737Z,10.85
2023-03-19T04:46:45.307Z,10.76
2023-03-19T04:47:46.832Z,10.68
2023-03-19T04:48:48.394Z,10.55
2023-03-19T04:49:49.914Z,10.57
2023-03-19T04:50:57.021Z,10.48
2023-03-19T04:51:58.584Z,10.58
2023-03-19T04:53:00.200Z,10.49
2023-03-19T04:54:01.712Z,10.54
2023-03-19T04:55:04.917Z,10.57
2023-03-19T04:56:07.965Z,10.63
2023-03-19T04:57:09.541Z,10.64
2023-03-19T04:58:11.369Z,10.54
2023-03-19T04:59:12.985Z,10.66
2023-03-19T05:00:16.235Z,10.57
2023-03-19T05:01:17.779Z,10.64
2023-03-19T05:02:19.302Z,10.72
2023-03-19T05:03:21.914Z,10.65
2023-03-19T05:04:24.028Z,10.74
2023-03-19T05:05:25.700Z,10.76
2023-03-19T05:06:27.296Z,10.78
2023-03-19T05:07:28.810Z,10.79
2023-03-19T05:08:30.348Z,10.72
2023-03-19T05:09:31.935Z,10.75
2023-03-19T05:10:34.366Z,10.91
2023-03-19T05:11:36.065Z,10.69
2023-03-19T05:12:37.582Z,11.11
2023-03-19T05:13:39.083Z,11.16
2023-03-19T05:14:40.647Z,11.16
2023-03-19T05:15:43.634Z,11.20
2023-03-19T05:16:45.089Z,11.62
2023-03-19T05:17:46.651Z,11.53
2023-03-19T05:18:48.803Z,11.45
2023-03-19T05:19:50.397Z,11.34
2023-03-19T05:20:52.001Z,11.12
2023-03-19T05:21:53.577Z,11.31
2023-03-19T05:22:55.196Z,11.20
2023-03-19T05:23:57.274Z,11.15
2023-03-19T05:24:59.513Z,11.19
2023-03-19T05:26:01.589Z,11.24
2023-03-19T05:27:03.181Z,11.32
2023-03-19T05:28:04.955Z,11.33
2023-03-19T05:29:07.842Z,11.29
2023-03-19T05:30:09.965Z,11.24
2023-03-19T05:31:11.836Z,11.19
2023-03-19T05:32:13.796Z,11.18
2023-03-19T05:33:15.380Z,11.20
2023-03-19T05:34:16.944Z,11.15
2023-03-19T05:35:18.525Z,11.08
2023-03-19T05:36:20.394Z,11.07
2023-03-19T05:37:21.942Z,11.08
2023-03-19T05:38:23.435Z,11.16
2023-03-19T05:39:24.921Z,11.17
2023-03-19T05:40:26.419Z,11.10
2023-03-19T05:41:28.266Z,11.10
2023-03-19T05:42:29.873Z,11.09
2023-03-19T05:43:31.604Z,11.03
2023-03-19T05:44:33.186Z,11.08
2023-03-19T05:45:35.814Z,10.99
2023-03-19T05:46:37.696Z,10.91
2023-03-19T05:47:39.383Z,10.90
2023-03-19T05:48:41.098Z,10.87
2023-03-19T05:49:42.658Z,10.89
2023-03-19T05:50:44.341Z,10.90
2023-03-19T05:51:46.584Z,10.85
2023-03-19T05:52:48.151Z,10.99
2023-03-19T05:53:49.657Z,10.93
2023-03-19T05:54:51.428Z,11.03
2023-03-19T05:55:52.961Z,11.12
2023-03-19T05:56:54.915Z,11.17
2023-03-19T05:57:57.345Z,11.30
2023-03-19T05:58:58.972Z,11.36
2023-03-19T06:00:00.642Z,11.34
2023-03-19T06:01:02.848Z,11.41
2023-03-19T06:02:04.733Z,11.25
2023-03-19T06:03:06.395Z,11.34
2023-03-19T06:04:08.302Z,11.39
2023-03-19T06:05:09.966Z,11.40
2023-03-19T06:06:12.307Z,11.39
2023-03-19T06:07:14.149Z,11.46
2023-03-19T06:08:16.204Z,11.51
2023-03-19T06:09:17.746Z,11.54
2023-03-19T06:10:19.337Z,11.44
2023-03-19T06:11:20.988Z,11.34
2023-03-19T06:12:23.724Z,11.34
2023-03-19T06:13:25.336Z,11.39
2023-03-19T06:14:26.816Z,11.42
2023-03-19T06:15:28.338Z,11.29
2023-03-19T06:16:31.246Z,11.44
2023-03-19T06:17:33.158Z,11.43
2023-03-19T06:18:34.709Z,11.54
2023-03-19T06:19:36.301Z,11.59
2023-03-19T06:20:37.824Z,11.64
2023-03-19T06:21:39.368Z,11.59
2023-03-19T06:22:41.402Z,11.51
2023-03-19T06:23:42.978Z,11.48
2023-03-19T06:24:44.508Z,11.39
2023-03-19T06:25:46.155Z,11.27
2023-03-19T06:26:47.739Z,11.31
2023-03-19T06:27:49.673Z,11.36
2023-03-19T06:28:51.323Z,11.38
2023-03-19T06:29:52.933Z,11.34
2023-03-19T06:30:55.561Z,11.34
2023-03-19T06:31:58.249Z,11.41
2023-03-19T06:33:00.280Z,11.46
2023-03-19T06:34:01.871Z,11.53
2023-03-19T06:35:03.424Z,11.61
2023-03-19T06:36:05.324Z,11.69
2023-03-19T06:37:07.453Z,11.68
2023-03-19T06:38:08.958Z,11.66
2023-03-19T06:39:10.517Z,11.58
2023-03-19T06:40:12.309Z,11.63
2023-03-19T06:41:13.856Z,11.77
2023-03-19T06:42:16.157Z,11.80
2023-03-19T06:43:18.274Z,11.84
2023-03-19T06:44:20.101Z,11.72
2023-03-19T06:45:21.700Z,11.69
2023-03-19T06:46:23.415Z,11.78
2023-03-19T06:47:26.217Z,11.74
2023-03-19T06:48:27.703Z,11.81
2023-03-19T06:49:29.190Z,11.81
2023-03-19T06:50:30.687Z,11.83
2023-03-19T06:51:32.173Z,11.81
2023-03-19T06:52:33.998Z,11.82
2023-03-19T06:53:35.584Z,11.87
2023-03-19T06:54:38.433Z,11.96
2023-03-19T06:55:40.198Z,12.09
2023-03-19T06:56:41.737Z,12.17
2023-03-19T06:57:43.297Z,12.16
2023-03-19T06:58:44.828Z,11.99
2023-03-19T06:59:46.414Z,12.12
2023-03-19T07:00:47.979Z,12.15
2023-03-19T07:01:49.489Z,12.25
2023-03-19T07:02:51.162Z,12.27
2023-03-19T07:03:52.704Z,12.15
2023-03-19T07:04:54.298Z,12.30
2023-03-19T07:05:55.787Z,12.34
2023-03-19T07:06:57.701Z,12.32
2023-03-19T07:07:59.329Z,12.22
2023-03-19T07:09:01.002Z,12.25
2023-03-19T07:10:02.539Z,12.34
2023-03-19T07:11:05.620Z,12.39
2023-03-19T07:12:07.392Z,12.34
2023-03-19T07:13:08.944Z,12.42
2023-03-19T07:14:11.138Z,12.38
2023-03-19T07:15:12.845Z,12.38
2023-03-19T07:16:14.399Z,12.37
2023-03-19T07:17:16.107Z,12.42
2023-03-19T07:18:17.650Z,12.47
2023-03-19T07:19:19.363Z,12.50
2023-03-19T07:20:21.126Z,12.48
2023-03-19T07:21:22.994Z,12.46
2023-03-19T07:22:24.512Z,12.45
2023-03-19T07:23:25.987Z,12.43
2023-03-19T07:24:27.516Z,12.43
2023-03-19T07:25:29.133Z,12.44
2023-03-19T07:26:30.671Z,12.48
2023-03-19T07:27:32.307Z,12.38
2023-03-19T07:28:34.520Z,12.44
2023-03-19T07:29:36.524Z,12.45
2023-03-19T07:30:38.532Z,12.47
2023-03-19T07:31:41.244Z,12.53
2023-03-19T07:32:43.118Z,12.52
2023-03-19T07:33:44.662Z,12.50
2023-03-19T07:34:46.306Z,12.52
2023-03-19T07:35:47.877Z,12.48
2023-03-19T07:36:49.412Z,12.51
2023-03-19T07:37:51.149Z,12.56
2023-03-19T07:38:52.639Z,12.60
2023-03-19T07:39:54.200Z,12.64
2023-03-19T07:41:02.356Z,12.60
2023-03-19T07:42:04.724Z,12.64
2023-03-19T07:43:06.727Z,12.58
2023-03-19T07:44:08.272Z,12.64
2023-03-19T07:45:10.120Z,12.69
2023-03-19T07:46:11.759Z,12.72
2023-03-19T07:47:27.929Z,12.78
2023-03-19T07:48:29.970Z,12.89
2023-03-19T07:49:31.508Z,12.76
2023-03-19T07:50:33.374Z,12.80
2023-03-19T07:51:35.406Z,12.76
2023-03-19T07:52:36.983Z,12.79
2023-03-19T07:53:38.501Z,12.94
2023-03-19T07:54:40.785Z,13.02
2023-03-19T07:55:42.324Z,13.01
2023-03-19T07:56:43.823Z,13.06
2023-03-19T07:57:45.336Z,13.11
2023-03-19T07:58:46.861Z,12.76
2023-03-19T07:59:48.405Z,12.59
2023-03-19T08:00:49.993Z,12.44
2023-03-19T08:01:51.525Z,12.36
2023-03-19T08:02:53.126Z,12.18
2023-03-19T08:03:54.613Z,12.35
2023-03-19T08:04:56.400Z,12.59
2023-03-19T08:05:57.977Z,12.69
2023-03-19T08:06:59.546Z,12.70
2023-03-19T08:08:01.247Z,12.70
2023-03-19T08:09:02.753Z,12.78
2023-03-19T08:10:06.787Z,12.71
2023-03-19T08:11:08.742Z,13.02
2023-03-19T08:12:10.483Z,12.95
2023-03-19T08:13:11.980Z,13.19
2023-03-19T08:14:13.527Z,13.30
2023-03-19T08:15:15.059Z,13.31
2023-03-19T08:16:17.035Z,13.38
2023-03-19T08:17:18.598Z,13.43
2023-03-19T08:18:20.230Z,13.31
2023-03-19T08:19:22.207Z,13.50
2023-03-19T08:20:23.767Z,13.51
2023-03-19T08:21:25.956Z,13.60
2023-03-19T08:22:27.466Z,13.61
2023-03-19T08:23:29.137Z,13.61
2023-03-19T08:24:30.914Z,13.68
2023-03-19T08:25:32.707Z,13.68
2023-03-19T08:26:34.342Z,13.49
2023-03-19T08:27:36.650Z,13.49
2023-03-19T08:28:38.213Z,13.53
2023-03-19T08:29:39.727Z,13.65
2023-03-19T08:30:41.403Z,13.72
2023-03-19T08:31:43.040Z,13.74
2023-03-19T08:32:49.262Z,13.54
2023-03-19T08:33:50.954Z,13.73
2023-03-19T08:34:52.953Z,13.67
2023-03-19T08:35:54.661Z,13.62
2023-03-19T08:36:56.370Z,13.63
2023-03-19T08:37:58.208Z,13.64
2023-03-19T08:39:00.429Z,13.64
2023-03-19T08:40:01.979Z,13.69
2023-03-19T08:41:04.362Z,13.67
2023-03-19T08:42:05.933Z,13.75
2023-03-19T08:43:07.522Z,13.69
2023-03-19T08:44:09.046Z,13.74
2023-03-19T08:45:10.969Z,13.76
2023-03-19T08:46:12.544Z,13.77
2023-03-19T08:47:14.122Z,13.80
2023-03-19T08:48:15.992Z,13.65
2023-03-19T08:49:17.511Z,13.86
2023-03-19T08:50:19.307Z,13.88
2023-03-19T08:51:21.006Z,13.89
2023-03-19T08:52:22.511Z,13.90
2023-03-19T08:53:24.281Z,13.92
2023-03-19T08:54:25.781Z,13.90
2023-03-19T08:55:27.334Z,13.94
2023-03-19T08:56:28.859Z,13.96
2023-03-19T08:57:31.319Z,13.94
2023-03-19T08:58:32.876Z,13.89
2023-03-19T08:59:34.463Z,13.85
2023-03-19T09:00:36.584Z,13.75
2023-03-19T09:01:38.260Z,13.83
2023-03-19T09:02:40.365Z,13.82
2023-03-19T09:03:43.023Z,13.86
2023-03-19T09:04:44.638Z,13.89
2023-03-19T09:05:46.756Z,13.87
2023-03-19T09:06:51.764Z,13.92
2023-03-19T09:07:53.777Z,13.99
2023-03-19T09:08:55.316Z,13.99
2023-03-19T09:09:56.841Z,14.02
2023-03-19T09:10:58.546Z,14.00
2023-03-19T09:12:00.712Z,14.01
2023-03-19T09:13:02.319Z,14.02
2023-03-19T09:14:03.874Z,14.00
2023-03-19T09:15:06.710Z,14.00
2023-03-19T09:16:08.448Z,14.02
2023-03-19T09:17:10.758Z,13.96
2023-03-19T09:18:12.296Z,13.89
2023-03-19T09:19:13.987Z,13.85
2023-03-19T09:20:15.622Z,13.78
2023-03-19T09:21:17.214Z,13.83
2023-03-19T09:22:18.724Z,13.85
2023-03-19T09:23:20.779Z,13.81
2023-03-19T09:24:22.422Z,13.75
2023-03-19T09:25:23.951Z,13.76
2023-03-19T09:26:25.488Z,13.81
2023-03-19T09:27:27.375Z,13.75
2023-03-19T09:28:32.241Z,13.65
2023-03-19T09:29:34.330Z,13.78
2023-03-19T09:30:35.853Z,13.84
2023-03-19T09:31:37.788Z,13.85
2023-03-19T09:32:39.451Z,13.89
2023-03-19T09:33:41.328Z,13.84
2023-03-19T09:34:43.004Z,13.98
2023-03-19T09:35:49.176Z,13.86
2023-03-19T09:36:50.759Z,13.92
2023-03-19T09:37:52.293Z,13.92
2023-03-19T09:38:53.810Z,13.95
2023-03-19T09:39:55.386Z,14.02
2023-03-19T09:41:30.127Z,14.07
2023-03-19T09:42:37.379Z,14.20
2023-03-19T09:44:03.046Z,14.25
2023-03-19T09:45:05.118Z,14.24
2023-03-19T09:46:21.947Z,14.14
2023-03-19T09:47:32.293Z,14.22
2023-03-19T09:48:55.217Z,14.27
2023-03-19T09:50:04.058Z,14.31
2023-03-19T09:51:05.870Z,14.37
2023-03-19T09:52:37.701Z,14.22
2023-03-19T09:53:44.519Z,14.24
2023-03-19T09:54:48.361Z,14.20
2023-03-19T09:55:51.490Z,14.16
2023-03-19T09:56:53.443Z,14.18
2023-03-19T09:57:56.415Z,14.21
2023-03-19T09:58:57.793Z,14.59
2023-03-19T09:59:59.268Z,14.80
2023-03-19T10:01:01.520Z,14.49
2023-03-19T10:02:11.918Z,14.37
2023-03-19T10:03:28.914Z,14.35
2023-03-19T10:04:41.613Z,14.43
2023-03-19T10:06:07.427Z,14.40
2023-03-19T10:07:35.255Z,14.46
2023-03-19T10:09:01.117Z,14.34
2023-03-19T10:10:24.454Z,14.20
2023-03-19T10:11:44.660Z,14.23
2023-03-19T10:12:54.163Z,14.26
2023-03-19T10:14:11.347Z,14.19
2023-03-19T10:15:17.363Z,14.22
2023-03-19T10:16:24.304Z,14.07
2023-03-19T10:17:29.381Z,14.00
2023-03-19T10:18:39.049Z,14.08
2023-03-19T10:19:51.494Z,14.11
2023-03-19T10:21:06.302Z,14.06
2023-03-19T10:22:08.878Z,14.14
2023-03-19T10:23:48.309Z,14.21
2023-03-19T10:24:50.000Z,14.28
2023-03-19T10:25:55.651Z,14.24
2023-03-19T10:27:00.427Z,14.26
2023-03-19T10:28:11.579Z,14.23
2023-03-19T10:29:19.708Z,14.21
2023-03-19T10:30:21.379Z,14.31
2023-03-19T10:31:27.248Z,14.16
2023-03-19T10:32:42.698Z,14.11
2023-03-19T10:33:46.600Z,14.12
2023-03-19T10:34:51.008Z,14.13
2023-03-19T10:35:58.560Z,14.23
2023-03-19T10:37:13.698Z,14.19
2023-03-19T10:38:25.872Z,14.28
2023-03-19T10:39:28.056Z,14.26
2023-03-19T10:40:44.405Z,14.18
2023-03-19T10:42:01.697Z,14.14
2023-03-19T10:43:16.392Z,14.32
2023-03-19T10:44:30.529Z,14.36
2023-03-19T10:45:34.203Z,14.36
2023-03-19T10:46:42.418Z,14.46
2023-03-19T10:47:43.962Z,14.53
2023-03-19T10:48:46.327Z,14.41
2023-03-19T10:49:47.879Z,14.50
2023-03-19T10:50:53.174Z,14.34
2023-03-19T10:51:56.996Z,14.20
2023-03-19T10:53:14.311Z,14.34
2023-03-19T10:54:26.217Z,14.23
2023-03-19T10:55:30.498Z,14.12
2023-03-19T10:56:34.132Z,13.97
2023-03-19T10:57:35.742Z,14.06
2023-03-19T10:58:37.544Z,14.12
2023-03-19T10:59:39.093Z,14.24
2023-03-19T11:00:40.630Z,14.39
2023-03-19T11:01:42.269Z,14.52
2023-03-19T11:02:56.211Z,14.61
2023-03-19T11:03:58.553Z,14.72
2023-03-19T11:05:19.960Z,14.69
2023-03-19T11:06:27.831Z,15.11
2023-03-19T11:07:29.775Z,14.99
2023-03-19T11:08:36.015Z,14.89
2023-03-19T11:09:38.919Z,14.87
2023-03-19T11:10:47.311Z,14.77
2023-03-19T11:11:51.433Z,14.72
2023-03-19T11:13:06.494Z,14.60
2023-03-19T11:14:22.055Z,14.45
2023-03-19T11:15:27.460Z,14.72
2023-03-19T11:16:29.139Z,14.83
2023-03-19T11:17:45.760Z,14.87
2023-03-19T11:18:48.542Z,14.89
2023-03-19T11:19:57.516Z,14.95
2023-03-19T11:21:02.355Z,15.12
2023-03-19T11:22:10.455Z,15.15
2023-03-19T11:23:16.559Z,15.20
2023-03-19T11:24:18.126Z,15.23
2023-03-19T11:25:27.480Z,15.28
2023-03-19T11:26:29.099Z,15.43
2023-03-19T11:27:35.474Z,15.40
2023-03-19T11:28:37.153Z,15.50
2023-03-19T11:29:42.449Z,15.56
2023-03-19T11:30:46.572Z,15.71
2023-03-19T11:32:26.831Z,15.87
2023-03-19T11:33:55.845Z,15.95
2023-03-19T11:35:26.465Z,15.83
2023-03-19T11:37:10.096Z,15.96
2023-03-19T11:38:23.247Z,15.89
2023-03-19T11:39:45.852Z,15.75
2023-03-19T11:40:55.379Z,15.75
2023-03-19T11:42:24.069Z,15.79
2023-03-19T11:43:46.492Z,15.88
2023-03-19T11:45:26.134Z,16.19
2023-03-19T11:46:30.586Z,16.60
2023-03-19T11:47:49.229Z,16.73
2023-03-19T11:49:07.060Z,16.79
2023-03-19T11:50:48.340Z,16.74
2023-03-19T11:51:57.033Z,16.48
2023-03-19T11:53:01.894Z,16.09
2023-03-19T11:54:21.846Z,16.00
2023-03-19T11:55:37.034Z,15.94
2023-03-19T11:56:53.286Z,16.11
2023-03-19T11:58:06.756Z,16.13
2023-03-19T11:59:21.113Z,15.93
2023-03-19T12:00:28.536Z,16.16
2023-03-19T12:01:39.291Z,16.47
2023-03-19T12:02:51.554Z,16.09
2023-03-19T12:03:57.618Z,16.53
2023-03-19T12:05:19.809Z,16.97
2023-03-19T12:06:39.048Z,17.00
2023-03-19T12:07:45.142Z,17.08
2023-03-19T12:08:50.472Z,17.13
2023-03-19T12:10:10.365Z,17.24
2023-03-19T12:11:25.400Z,17.29
2023-03-19T12:12:38.314Z,16.78
2023-03-19T12:13:42.709Z,16.91
2023-03-19T12:15:05.936Z,16.97
2023-03-19T12:16:45.745Z,17.11
2023-03-19T12:18:03.137Z,17.25
2023-03-19T12:19:46.121Z,17.27
2023-03-19T12:21:02.840Z,17.05
2023-03-19T12:22:25.795Z,17.07
2023-03-19T12:23:36.432Z,17.06
2023-03-19T12:24:38.036Z,17.04
2023-03-19T12:25:49.433Z,17.02
2023-03-19T12:27:18.495Z,17.16
2023-03-19T12:28:36.392Z,17.38
2023-03-19T12:29:51.511Z,17.52
2023-03-19T12:31:21.410Z,17.68
2023-03-19T12:32:29.883Z,17.86
2023-03-19T12:33:59.172Z,18.04
2023-03-19T12:35:08.150Z,18.08
2023-03-19T12:36:12.423Z,18.06
2023-03-19T12:37:29.650Z,18.03
2023-03-19T12:38:36.671Z,17.77
2023-03-19T12:39:39.960Z,17.78
2023-03-19T12:40:53.939Z,17.79
2023-03-19T12:41:56.278Z,17.74
2023-03-19T12:42:59.066Z,17.75
2023-03-19T12:44:13.136Z,17.83
2023-03-19T12:45:33.791Z,17.88
2023-03-19T12:46:49.102Z,17.88
2023-03-19T12:47:50.498Z,18.31
2023-03-19T12:48:54.305Z,18.13
2023-03-19T12:50:03.232Z,18.05
2023-03-19T12:51:06.811Z,17.96
2023-03-19T12:52:19.719Z,17.96
2023-03-19T12:53:46.036Z,18.05
2023-03-19T12:54:51.794Z,18.08
2023-03-19T12:55:55.575Z,17.99
2023-03-19T12:57:27.257Z,17.88
2023-03-19T12:58:37.895Z,18.06
2023-03-19T12:59:46.023Z,18.19
2023-03-19T13:00:57.692Z,18.30
2023-03-19T13:02:09.830Z,18.26
2023-03-19T13:03:14.164Z,18.15
2023-03-19T13:04:29.897Z,18.17
2023-03-19T13:05:52.018Z,18.42
2023-03-19T13:06:53.452Z,18.57
2023-03-19T13:07:59.827Z,18.68
2023-03-19T13:09:10.188Z,18.90
2023-03-19T13:10:21.613Z,19.21
2023-03-19T13:11:51.993Z,19.37
2023-03-19T13:12:53.567Z,19.55
2023-03-19T13:14:04.050Z,19.68
2023-03-19T13:15:17.506Z,19.65
2023-03-19T13:16:51.118Z,19.90
2023-03-19T13:17:57.890Z,19.76
2023-03-19T13:19:29.934Z,19.70
2023-03-19T13:20:37.351Z,19.94
2023-03-19T13:21:38.932Z,20.04
2023-03-19T13:22:56.702Z,19.72
2023-03-19T13:24:07.461Z,19.54
2023-03-19T13:25:09.717Z,19.22
2023-03-19T13:26:12.685Z,19.33
2023-03-19T13:27:24.515Z,19.87
2023-03-19T13:28:33.649Z,19.77
2023-03-19T13:29:37.184Z,19.97
2023-03-19T13:30:40.205Z,20.21
2023-03-19T13:31:41.769Z,20.41
2023-03-19T13:32:48.087Z,20.52
2023-03-19T13:34:18.072Z,20.82
2023-03-19T13:35:34.080Z,21.08
2023-03-19T13:36:38.054Z,21.23
2023-03-19T13:37:42.522Z,21.32
2023-03-19T13:38:52.654Z,21.31
2023-03-19T13:39:54.166Z,21.13
2023-03-19T13:40:56.907Z,21.35
2023-03-19T13:42:10.938Z,21.55
2023-03-19T13:43:28.061Z,21.60
2023-03-19T13:44:34.149Z,21.56
2023-03-19T13:45:36.720Z,21.47
2023-03-19T13:46:40.068Z,21.49
2023-03-19T13:47:43.491Z,21.17
2023-03-19T13:48:45.274Z,21.33
2023-03-19T13:50:10.828Z,21.40
2023-03-19T13:51:12.393Z,21.58
2023-03-19T13:52:13.767Z,21.71
2023-03-19T13:53:38.105Z,22.03
2023-03-19T13:54:40.683Z,22.11